Airport Name : Cordoba

Other Name : Cordoba

ICAO : LEBA

IATA : ODB

FAA :

Latitude : 37.842006

Longitude : -4.848878

Country : Spain

Local Date and Time : 24 Jan 2021 06:49

 

TAF (Terminal Aerodrome Forecast)

TAF LEBA 240200Z 2403/2503 25012KT CAVOK TX16/2415Z TN12/2418Z PROB40 TEMPO 2403/2412 4000 RA BKN010 PROB40 TEMPO 2403/2409 4000 BR BKN010 PROB30 TEMPO 2403/2408 0500 FG VV001

 

METAR (METeorological Aerodrome Report)

LEBA 240530Z AUTO 26010KT 230V290 9000 OVC010 14/13 Q1016

LEBA 240500Z AUTO 25013G25KT 210V280 9999 OVC011 14/13 Q1015

LEBA 240430Z AUTO 25015KT 220V280 9999 BKN011 14/13 Q1015

LEBA 240400Z AUTO 25013KT 210V280 9999 OVC011 14/13 Q1015

LEBA 240330Z AUTO 25012KT 200V280 9999 OVC011 14/13 Q1015

LEBA 240300Z AUTO 25012KT 220V280 9999 OVC011 14/13 Q1016

LEBA 240230Z AUTO 25012KT 220V280 9999 OVC012 14/13 Q1016

LEBA 240200Z AUTO 25012KT 6000 -RA BKN009 OVC013 14/13 Q1016

To Charter a Jet Click here.